sensor_id;sensor_type;location;lat;lon;timestamp;P1;durP1;ratioP1;P2;durP2;ratioP2
77350;SDS011;66420;50.246;14.320;2022-12-29T00:02:42;2.33;;;1.08;;
77350;SDS011;66420;50.246;14.320;2022-12-29T00:05:27;3.03;;;1.40;;
77350;SDS011;66420;50.246;14.320;2022-12-29T00:08:11;2.47;;;1.00;;
77350;SDS011;66420;50.246;14.320;2022-12-29T00:11:00;3.72;;;1.30;;
77350;SDS011;66420;50.246;14.320;2022-12-29T00:13:46;2.67;;;1.13;;
77350;SDS011;66420;50.246;14.320;2022-12-29T00:16:50;2.75;;;1.20;;
77350;SDS011;66420;50.246;14.320;2022-12-29T00:19:34;2.28;;;0.90;;
77350;SDS011;66420;50.246;14.320;2022-12-29T00:22:37;3.58;;;1.50;;
77350;SDS011;66420;50.246;14.320;2022-12-29T00:25:54;2.95;;;1.52;;
77350;SDS011;66420;50.246;14.320;2022-12-29T00:29:18;2.70;;;1.50;;
77350;SDS011;66420;50.246;14.320;2022-12-29T00:32:21;3.00;;;1.55;;
77350;SDS011;66420;50.246;14.320;2022-12-29T00:38:22;3.35;;;1.63;;
77350;SDS011;66420;50.246;14.320;2022-12-29T00:41:25;2.80;;;1.35;;
77350;SDS011;66420;50.246;14.320;2022-12-29T00:44:29;3.22;;;1.67;;
77350;SDS011;66420;50.246;14.320;2022-12-29T00:47:13;2.40;;;1.02;;
77350;SDS011;66420;50.246;14.320;2022-12-29T00:49:58;3.83;;;1.40;;
77350;SDS011;66420;50.246;14.320;2022-12-29T00:52:42;2.50;;;1.10;;
77350;SDS011;66420;50.246;14.320;2022-12-29T00:55:27;3.15;;;1.30;;
77350;SDS011;66420;50.246;14.320;2022-12-29T00:58:11;2.78;;;1.30;;
77350;SDS011;66420;50.246;14.320;2022-12-29T01:01:06;3.40;;;1.50;;
77350;SDS011;66420;50.246;14.320;2022-12-29T01:03:52;3.42;;;1.52;;
77350;SDS011;66420;50.246;14.320;2022-12-29T01:06:37;3.75;;;2.00;;
77350;SDS011;66420;50.246;14.320;2022-12-29T01:09:23;5.20;;;2.65;;
77350;SDS011;66420;50.246;14.320;2022-12-29T01:12:27;4.07;;;2.50;;
77350;SDS011;66420;50.246;14.320;2022-12-29T01:15:24;4.90;;;2.38;;
77350;SDS011;66420;50.246;14.320;2022-12-29T01:18:09;4.07;;;2.47;;
77350;SDS011;66420;50.246;14.320;2022-12-29T01:21:03;3.85;;;2.15;;
77350;SDS011;66420;50.246;14.320;2022-12-29T01:23:49;4.28;;;2.05;;
77350;SDS011;66420;50.246;14.320;2022-12-29T01:26:33;3.55;;;2.03;;
77350;SDS011;66420;50.246;14.320;2022-12-29T01:29:18;4.28;;;2.10;;
77350;SDS011;66420;50.246;14.320;2022-12-29T01:32:03;3.70;;;1.88;;
77350;SDS011;66420;50.246;14.320;2022-12-29T01:34:48;3.55;;;1.70;;
77350;SDS011;66420;50.246;14.320;2022-12-29T01:37:33;3.13;;;1.70;;
77350;SDS011;66420;50.246;14.320;2022-12-29T01:40:17;2.95;;;1.55;;
77350;SDS011;66420;50.246;14.320;2022-12-29T01:43:04;2.10;;;1.00;;
77350;SDS011;66420;50.246;14.320;2022-12-29T01:45:52;2.30;;;0.98;;
77350;SDS011;66420;50.246;14.320;2022-12-29T01:48:38;2.10;;;0.98;;
77350;SDS011;66420;50.246;14.320;2022-12-29T01:51:23;2.90;;;1.33;;
77350;SDS011;66420;50.246;14.320;2022-12-29T01:54:11;2.42;;;1.40;;
77350;SDS011;66420;50.246;14.320;2022-12-29T01:57:05;7.07;;;3.42;;
77350;SDS011;66420;50.246;14.320;2022-12-29T01:59:56;4.55;;;2.10;;
77350;SDS011;66420;50.246;14.320;2022-12-29T02:03:08;3.97;;;1.90;;
77350;SDS011;66420;50.246;14.320;2022-12-29T02:05:56;7.55;;;2.70;;
77350;SDS011;66420;50.246;14.320;2022-12-29T02:08:46;4.97;;;2.35;;
77350;SDS011;66420;50.246;14.320;2022-12-29T02:11:31;4.43;;;2.45;;
77350;SDS011;66420;50.246;14.320;2022-12-29T02:14:16;5.95;;;3.00;;
77350;SDS011;66420;50.246;14.320;2022-12-29T02:36:01;3.15;;;1.85;;
77350;SDS011;66420;50.246;14.320;2022-12-29T02:38:50;3.63;;;1.52;;
77350;SDS011;66420;50.246;14.320;2022-12-29T02:42:02;2.17;;;1.23;;
77350;SDS011;66420;50.246;14.320;2022-12-29T02:47:54;2.85;;;1.52;;
77350;SDS011;66420;50.246;14.320;2022-12-29T02:50:50;3.38;;;1.83;;
77350;SDS011;66420;50.246;14.320;2022-12-29T02:53:43;2.80;;;1.70;;
77350;SDS011;66420;50.246;14.320;2022-12-29T02:56:47;2.65;;;1.35;;
77350;SDS011;66420;50.246;14.320;2022-12-29T02:59:32;3.30;;;1.60;;
77350;SDS011;66420;50.246;14.320;2022-12-29T03:08:30;4.00;;;1.80;;
77350;SDS011;66420;50.246;14.320;2022-12-29T03:11:16;3.45;;;1.98;;
77350;SDS011;66420;50.246;14.320;2022-12-29T03:14:26;4.13;;;2.10;;
77350;SDS011;66420;50.246;14.320;2022-12-29T03:17:39;3.10;;;2.00;;
77350;SDS011;66420;50.246;14.320;2022-12-29T03:20:37;4.32;;;2.22;;
77350;SDS011;66420;50.246;14.320;2022-12-29T03:23:26;3.92;;;2.10;;
77350;SDS011;66420;50.246;14.320;2022-12-29T03:26:12;3.42;;;2.10;;
77350;SDS011;66420;50.246;14.320;2022-12-29T03:31:46;3.70;;;2.22;;
77350;SDS011;66420;50.246;14.320;2022-12-29T03:34:34;3.85;;;2.15;;
77350;SDS011;66420;50.246;14.320;2022-12-29T03:37:31;4.88;;;2.08;;
77350;SDS011;66420;50.246;14.320;2022-12-29T03:40:23;4.72;;;2.08;;
77350;SDS011;66420;50.246;14.320;2022-12-29T03:43:09;4.03;;;2.22;;
77350;SDS011;66420;50.246;14.320;2022-12-29T03:45:55;4.60;;;2.42;;
77350;SDS011;66420;50.246;14.320;2022-12-29T03:48:39;3.85;;;1.90;;
77350;SDS011;66420;50.246;14.320;2022-12-29T03:51:24;3.80;;;2.10;;
77350;SDS011;66420;50.246;14.320;2022-12-29T03:54:08;4.13;;;2.50;;
77350;SDS011;66420;50.246;14.320;2022-12-29T03:56:53;3.50;;;2.00;;
77350;SDS011;66420;50.246;14.320;2022-12-29T03:59:37;4.45;;;2.15;;
77350;SDS011;66420;50.246;14.320;2022-12-29T04:02:22;4.85;;;2.25;;
77350;SDS011;66420;50.246;14.320;2022-12-29T04:05:08;5.22;;;2.50;;
77350;SDS011;66420;50.246;14.320;2022-12-29T04:07:53;4.88;;;2.20;;
77350;SDS011;66420;50.246;14.320;2022-12-29T04:10:37;3.42;;;2.13;;
77350;SDS011;66420;50.246;14.320;2022-12-29T04:13:21;3.78;;;1.90;;
77350;SDS011;66420;50.246;14.320;2022-12-29T04:16:06;4.10;;;2.28;;
77350;SDS011;66420;50.246;14.320;2022-12-29T04:18:52;3.85;;;2.10;;
77350;SDS011;66420;50.246;14.320;2022-12-29T04:21:37;3.85;;;1.90;;
77350;SDS011;66420;50.246;14.320;2022-12-29T04:24:21;4.13;;;2.40;;
77350;SDS011;66420;50.246;14.320;2022-12-29T04:27:06;4.63;;;2.30;;
77350;SDS011;66420;50.246;14.320;2022-12-29T04:29:51;4.30;;;2.45;;
77350;SDS011;66420;50.246;14.320;2022-12-29T04:32:35;3.92;;;2.70;;
77350;SDS011;66420;50.246;14.320;2022-12-29T04:35:20;5.40;;;2.70;;
77350;SDS011;66420;50.246;14.320;2022-12-29T04:38:05;4.57;;;2.30;;
77350;SDS011;66420;50.246;14.320;2022-12-29T04:40:49;4.45;;;2.38;;
77350;SDS011;66420;50.246;14.320;2022-12-29T04:43:35;5.20;;;2.53;;
77350;SDS011;66420;50.246;14.320;2022-12-29T04:46:19;5.90;;;2.70;;
77350;SDS011;66420;50.246;14.320;2022-12-29T04:49:04;6.00;;;2.70;;
77350;SDS011;66420;50.246;14.320;2022-12-29T04:51:52;3.90;;;2.25;;
77350;SDS011;66420;50.246;14.320;2022-12-29T04:54:37;2.95;;;1.70;;
77350;SDS011;66420;50.246;14.320;2022-12-29T04:57:21;4.10;;;1.60;;
77350;SDS011;66420;50.246;14.320;2022-12-29T05:00:06;2.42;;;1.23;;
77350;SDS011;66420;50.246;14.320;2022-12-29T05:02:52;3.33;;;1.30;;
77350;SDS011;66420;50.246;14.320;2022-12-29T05:05:37;2.95;;;1.50;;
77350;SDS011;66420;50.246;14.320;2022-12-29T05:08:22;2.10;;;0.65;;
77350;SDS011;66420;50.246;14.320;2022-12-29T05:11:07;2.40;;;0.90;;
77350;SDS011;66420;50.246;14.320;2022-12-29T05:13:52;1.55;;;0.70;;
77350;SDS011;66420;50.246;14.320;2022-12-29T05:16:36;1.63;;;0.47;;
77350;SDS011;66420;50.246;14.320;2022-12-29T05:19:20;1.70;;;1.00;;
77350;SDS011;66420;50.246;14.320;2022-12-29T05:22:05;1.85;;;0.70;;
77350;SDS011;66420;50.246;14.320;2022-12-29T05:24:49;1.02;;;0.50;;
77350;SDS011;66420;50.246;14.320;2022-12-29T05:27:34;1.67;;;0.60;;
77350;SDS011;66420;50.246;14.320;2022-12-29T05:30:18;2.88;;;0.75;;
77350;SDS011;66420;50.246;14.320;2022-12-29T05:33:03;1.40;;;0.60;;
77350;SDS011;66420;50.246;14.320;2022-12-29T05:35:50;1.38;;;0.60;;
77350;SDS011;66420;50.246;14.320;2022-12-29T05:38:35;1.38;;;0.40;;
77350;SDS011;66420;50.246;14.320;2022-12-29T05:41:20;2.00;;;0.80;;
77350;SDS011;66420;50.246;14.320;2022-12-29T05:44:05;1.75;;;0.65;;
77350;SDS011;66420;50.246;14.320;2022-12-29T05:46:49;2.05;;;0.68;;
77350;SDS011;66420;50.246;14.320;2022-12-29T05:49:34;1.27;;;0.45;;
77350;SDS011;66420;50.246;14.320;2022-12-29T05:52:18;1.20;;;0.52;;
77350;SDS011;66420;50.246;14.320;2022-12-29T05:55:05;1.65;;;0.73;;
77350;SDS011;66420;50.246;14.320;2022-12-29T05:57:51;1.65;;;0.90;;
77350;SDS011;66420;50.246;14.320;2022-12-29T06:00:35;1.40;;;0.57;;
77350;SDS011;66420;50.246;14.320;2022-12-29T06:03:20;1.80;;;0.70;;
77350;SDS011;66420;50.246;14.320;2022-12-29T06:06:04;1.80;;;0.60;;
77350;SDS011;66420;50.246;14.320;2022-12-29T06:08:49;1.60;;;0.70;;
77350;SDS011;66420;50.246;14.320;2022-12-29T06:11:34;2.33;;;1.00;;
77350;SDS011;66420;50.246;14.320;2022-12-29T06:14:18;1.17;;;0.50;;
77350;SDS011;66420;50.246;14.320;2022-12-29T06:17:03;1.70;;;0.70;;
77350;SDS011;66420;50.246;14.320;2022-12-29T06:19:47;1.60;;;0.70;;
77350;SDS011;66420;50.246;14.320;2022-12-29T06:22:32;2.88;;;1.05;;
77350;SDS011;66420;50.246;14.320;2022-12-29T06:25:17;3.20;;;2.30;;
77350;SDS011;66420;50.246;14.320;2022-12-29T06:28:01;3.05;;;2.22;;
77350;SDS011;66420;50.246;14.320;2022-12-29T06:30:49;2.92;;;1.92;;
77350;SDS011;66420;50.246;14.320;2022-12-29T06:33:33;2.30;;;1.17;;
77350;SDS011;66420;50.246;14.320;2022-12-29T06:36:18;1.95;;;0.60;;
77350;SDS011;66420;50.246;14.320;2022-12-29T06:39:02;1.48;;;0.50;;
77350;SDS011;66420;50.246;14.320;2022-12-29T06:41:47;1.33;;;0.50;;
77350;SDS011;66420;50.246;14.320;2022-12-29T06:44:31;0.98;;;0.43;;
77350;SDS011;66420;50.246;14.320;2022-12-29T06:47:16;1.20;;;0.40;;
77350;SDS011;66420;50.246;14.320;2022-12-29T06:50:00;0.77;;;0.40;;
77350;SDS011;66420;50.246;14.320;2022-12-29T06:52:45;0.90;;;0.40;;
77350;SDS011;66420;50.246;14.320;2022-12-29T06:55:30;2.55;;;1.00;;
77350;SDS011;66420;50.246;14.320;2022-12-29T06:58:14;1.23;;;0.45;;
77350;SDS011;66420;50.246;14.320;2022-12-29T07:00:59;1.58;;;0.80;;
77350;SDS011;66420;50.246;14.320;2022-12-29T07:03:43;2.00;;;0.95;;
77350;SDS011;66420;50.246;14.320;2022-12-29T07:06:28;2.50;;;1.00;;
77350;SDS011;66420;50.246;14.320;2022-12-29T07:09:12;2.17;;;1.00;;
77350;SDS011;66420;50.246;14.320;2022-12-29T07:11:56;2.83;;;1.30;;
77350;SDS011;66420;50.246;14.320;2022-12-29T07:14:41;4.63;;;2.35;;
77350;SDS011;66420;50.246;14.320;2022-12-29T07:17:25;3.83;;;1.67;;
77350;SDS011;66420;50.246;14.320;2022-12-29T07:20:10;2.10;;;0.80;;
77350;SDS011;66420;50.246;14.320;2022-12-29T07:22:54;2.05;;;1.17;;
77350;SDS011;66420;50.246;14.320;2022-12-29T07:25:39;1.83;;;1.00;;
77350;SDS011;66420;50.246;14.320;2022-12-29T07:28:25;1.85;;;1.20;;
77350;SDS011;66420;50.246;14.320;2022-12-29T07:31:14;2.20;;;0.80;;
77350;SDS011;66420;50.246;14.320;2022-12-29T07:34:00;1.95;;;0.88;;
77350;SDS011;66420;50.246;14.320;2022-12-29T07:36:45;1.50;;;0.60;;
77350;SDS011;66420;50.246;14.320;2022-12-29T07:39:29;1.70;;;0.80;;
77350;SDS011;66420;50.246;14.320;2022-12-29T07:42:14;1.30;;;0.68;;
77350;SDS011;66420;50.246;14.320;2022-12-29T07:44:58;1.95;;;0.90;;
77350;SDS011;66420;50.246;14.320;2022-12-29T07:47:43;1.80;;;0.98;;
77350;SDS011;66420;50.246;14.320;2022-12-29T07:50:27;1.48;;;0.77;;
77350;SDS011;66420;50.246;14.320;2022-12-29T07:53:12;1.90;;;1.08;;
77350;SDS011;66420;50.246;14.320;2022-12-29T07:55:57;1.45;;;0.70;;
77350;SDS011;66420;50.246;14.320;2022-12-29T07:58:41;1.88;;;1.00;;
77350;SDS011;66420;50.246;14.320;2022-12-29T08:01:26;1.80;;;0.80;;
77350;SDS011;66420;50.246;14.320;2022-12-29T08:04:11;2.15;;;0.63;;
77350;SDS011;66420;50.246;14.320;2022-12-29T08:06:56;1.10;;;0.50;;
77350;SDS011;66420;50.246;14.320;2022-12-29T08:09:40;1.00;;;0.38;;
77350;SDS011;66420;50.246;14.320;2022-12-29T08:12:24;1.23;;;0.30;;
77350;SDS011;66420;50.246;14.320;2022-12-29T08:15:10;1.00;;;0.32;;
77350;SDS011;66420;50.246;14.320;2022-12-29T08:17:55;1.10;;;0.40;;
77350;SDS011;66420;50.246;14.320;2022-12-29T08:20:40;1.00;;;0.38;;
77350;SDS011;66420;50.246;14.320;2022-12-29T08:23:24;1.27;;;0.60;;
77350;SDS011;66420;50.246;14.320;2022-12-29T08:26:09;1.23;;;0.55;;
77350;SDS011;66420;50.246;14.320;2022-12-29T08:28:54;0.88;;;0.40;;
77350;SDS011;66420;50.246;14.320;2022-12-29T08:31:40;0.95;;;0.40;;
77350;SDS011;66420;50.246;14.320;2022-12-29T08:34:24;1.13;;;0.50;;
77350;SDS011;66420;50.246;14.320;2022-12-29T08:37:09;1.20;;;0.40;;
77350;SDS011;66420;50.246;14.320;2022-12-29T08:39:53;0.95;;;0.40;;
77350;SDS011;66420;50.246;14.320;2022-12-29T08:42:38;0.85;;;0.30;;
77350;SDS011;66420;50.246;14.320;2022-12-29T08:45:22;0.70;;;0.30;;
77350;SDS011;66420;50.246;14.320;2022-12-29T08:48:07;2.05;;;0.40;;
77350;SDS011;66420;50.246;14.320;2022-12-29T08:50:52;0.75;;;0.28;;
77350;SDS011;66420;50.246;14.320;2022-12-29T08:53:36;0.57;;;0.30;;
77350;SDS011;66420;50.246;14.320;2022-12-29T08:56:21;0.65;;;0.25;;
77350;SDS011;66420;50.246;14.320;2022-12-29T08:59:07;0.65;;;0.28;;
77350;SDS011;66420;50.246;14.320;2022-12-29T09:01:53;0.70;;;0.20;;
77350;SDS011;66420;50.246;14.320;2022-12-29T09:04:38;0.40;;;0.20;;
77350;SDS011;66420;50.246;14.320;2022-12-29T09:07:23;1.15;;;1.15;;
77350;SDS011;66420;50.246;14.320;2022-12-29T09:10:07;0.40;;;0.22;;
77350;SDS011;66420;50.246;14.320;2022-12-29T09:12:52;0.60;;;0.20;;
77350;SDS011;66420;50.246;14.320;2022-12-29T09:15:37;0.47;;;0.20;;
77350;SDS011;66420;50.246;14.320;2022-12-29T09:18:22;0.32;;;0.22;;
77350;SDS011;66420;50.246;14.320;2022-12-29T09:21:07;0.57;;;0.28;;
77350;SDS011;66420;50.246;14.320;2022-12-29T09:23:53;0.55;;;0.30;;
77350;SDS011;66420;50.246;14.320;2022-12-29T09:26:37;0.60;;;0.30;;
77350;SDS011;66420;50.246;14.320;2022-12-29T09:29:23;0.60;;;0.20;;
77350;SDS011;66420;50.246;14.320;2022-12-29T09:32:08;0.75;;;0.20;;
77350;SDS011;66420;50.246;14.320;2022-12-29T09:34:53;0.50;;;0.20;;
77350;SDS011;66420;50.246;14.320;2022-12-29T09:37:37;0.68;;;0.20;;
77350;SDS011;66420;50.246;14.320;2022-12-29T09:40:29;0.90;;;0.30;;
77350;SDS011;66420;50.246;14.320;2022-12-29T09:49:16;0.30;;;0.15;;
77350;SDS011;66420;50.246;14.320;2022-12-29T09:52:26;0.40;;;0.20;;
77350;SDS011;66420;50.246;14.320;2022-12-29T09:55:17;0.50;;;0.20;;
77350;SDS011;66420;50.246;14.320;2022-12-29T09:58:09;1.33;;;0.32;;
77350;SDS011;66420;50.246;14.320;2022-12-29T10:03:45;0.38;;;0.15;;
77350;SDS011;66420;50.246;14.320;2022-12-29T10:06:51;0.55;;;0.30;;
77350;SDS011;66420;50.246;14.320;2022-12-29T10:16:46;0.93;;;0.28;;
77350;SDS011;66420;50.246;14.320;2022-12-29T10:25:25;0.35;;;0.20;;
77350;SDS011;66420;50.246;14.320;2022-12-29T10:28:23;0.40;;;0.20;;
77350;SDS011;66420;50.246;14.320;2022-12-29T10:31:40;0.45;;;0.20;;
77350;SDS011;66420;50.246;14.320;2022-12-29T10:34:41;0.88;;;0.20;;
77350;SDS011;66420;50.246;14.320;2022-12-29T10:44:27;0.40;;;0.10;;
77350;SDS011;66420;50.246;14.320;2022-12-29T10:47:16;0.52;;;0.30;;
77350;SDS011;66420;50.246;14.320;2022-12-29T10:50:04;0.50;;;0.25;;
77350;SDS011;66420;50.246;14.320;2022-12-29T10:52:49;0.30;;;0.20;;
77350;SDS011;66420;50.246;14.320;2022-12-29T10:55:35;0.20;;;0.10;;
77350;SDS011;66420;50.246;14.320;2022-12-29T10:58:20;0.40;;;0.20;;
77350;SDS011;66420;50.246;14.320;2022-12-29T11:01:07;0.40;;;0.22;;
77350;SDS011;66420;50.246;14.320;2022-12-29T11:04:03;0.20;;;0.20;;
77350;SDS011;66420;50.246;14.320;2022-12-29T11:07:01;0.60;;;0.30;;
77350;SDS011;66420;50.246;14.320;2022-12-29T11:09:47;0.60;;;0.30;;
77350;SDS011;66420;50.246;14.320;2022-12-29T11:12:32;0.20;;;0.10;;
77350;SDS011;66420;50.246;14.320;2022-12-29T11:15:16;0.52;;;0.10;;
77350;SDS011;66420;50.246;14.320;2022-12-29T11:18:01;0.65;;;0.20;;
77350;SDS011;66420;50.246;14.320;2022-12-29T11:20:45;0.85;;;0.20;;
77350;SDS011;66420;50.246;14.320;2022-12-29T11:23:41;0.30;;;0.20;;
77350;SDS011;66420;50.246;14.320;2022-12-29T11:26:26;0.28;;;0.10;;
77350;SDS011;66420;50.246;14.320;2022-12-29T11:32:02;0.20;;;0.17;;
77350;SDS011;66420;50.246;14.320;2022-12-29T11:35:04;0.50;;;0.20;;
77350;SDS011;66420;50.246;14.320;2022-12-29T11:37:49;0.30;;;0.20;;
77350;SDS011;66420;50.246;14.320;2022-12-29T11:40:42;0.50;;;0.20;;
77350;SDS011;66420;50.246;14.320;2022-12-29T11:43:34;0.60;;;0.20;;
77350;SDS011;66420;50.246;14.320;2022-12-29T11:46:27;0.70;;;0.20;;
77350;SDS011;66420;50.246;14.320;2022-12-29T11:49:18;0.47;;;0.20;;
77350;SDS011;66420;50.246;14.320;2022-12-29T11:52:07;0.43;;;0.32;;
77350;SDS011;66420;50.246;14.320;2022-12-29T11:54:53;0.52;;;0.20;;
77350;SDS011;66420;50.246;14.320;2022-12-29T11:57:40;0.45;;;0.20;;
77350;SDS011;66420;50.246;14.320;2022-12-29T12:00:25;0.57;;;0.20;;
77350;SDS011;66420;50.246;14.320;2022-12-29T12:03:14;0.35;;;0.20;;
77350;SDS011;66420;50.246;14.320;2022-12-29T12:06:03;0.70;;;0.30;;
77350;SDS011;66420;50.246;14.320;2022-12-29T12:08:59;0.30;;;0.20;;
77350;SDS011;66420;50.246;14.320;2022-12-29T12:11:54;0.43;;;0.10;;
77350;SDS011;66420;50.246;14.320;2022-12-29T12:14:46;0.60;;;0.30;;
77350;SDS011;66420;50.246;14.320;2022-12-29T12:17:44;0.20;;;0.10;;
77350;SDS011;66420;50.246;14.320;2022-12-29T12:24:28;0.55;;;0.20;;
77350;SDS011;66420;50.246;14.320;2022-12-29T12:30:03;0.20;;;0.10;;
77350;SDS011;66420;50.246;14.320;2022-12-29T12:33:05;0.47;;;0.20;;
77350;SDS011;66420;50.246;14.320;2022-12-29T12:36:48;0.60;;;0.20;;
77350;SDS011;66420;50.246;14.320;2022-12-29T12:42:21;0.25;;;0.20;;
77350;SDS011;66420;50.246;14.320;2022-12-29T12:58:25;0.30;;;0.20;;
77350;SDS011;66420;50.246;14.320;2022-12-29T13:07:44;0.10;;;0.10;;
77350;SDS011;66420;50.246;14.320;2022-12-29T13:19:57;0.40;;;0.22;;
77350;SDS011;66420;50.246;14.320;2022-12-29T13:22:46;0.45;;;0.20;;
77350;SDS011;66420;50.246;14.320;2022-12-29T13:25:51;0.38;;;0.28;;
77350;SDS011;66420;50.246;14.320;2022-12-29T13:31:53;0.30;;;0.20;;
77350;SDS011;66420;50.246;14.320;2022-12-29T13:37:54;0.20;;;0.10;;
77350;SDS011;66420;50.246;14.320;2022-12-29T13:40:45;0.30;;;0.20;;
77350;SDS011;66420;50.246;14.320;2022-12-29T13:43:35;0.28;;;0.20;;
77350;SDS011;66420;50.246;14.320;2022-12-29T13:46:28;0.32;;;0.20;;
77350;SDS011;66420;50.246;14.320;2022-12-29T13:49:21;0.30;;;0.10;;
77350;SDS011;66420;50.246;14.320;2022-12-29T13:55:27;0.75;;;0.10;;
77350;SDS011;66420;50.246;14.320;2022-12-29T14:08:01;0.20;;;0.17;;
77350;SDS011;66420;50.246;14.320;2022-12-29T14:10:48;0.28;;;0.20;;
77350;SDS011;66420;50.246;14.320;2022-12-29T14:13:36;0.30;;;0.15;;
77350;SDS011;66420;50.246;14.320;2022-12-29T14:16:31;0.70;;;0.17;;
77350;SDS011;66420;50.246;14.320;2022-12-29T14:19:23;0.28;;;0.13;;
77350;SDS011;66420;50.246;14.320;2022-12-29T14:22:13;0.17;;;0.10;;
77350;SDS011;66420;50.246;14.320;2022-12-29T14:25:29;0.47;;;0.22;;
77350;SDS011;66420;50.246;14.320;2022-12-29T14:36:58;0.57;;;0.30;;
77350;SDS011;66420;50.246;14.320;2022-12-29T14:39:46;0.30;;;0.20;;
77350;SDS011;66420;50.246;14.320;2022-12-29T14:42:30;0.30;;;0.20;;
77350;SDS011;66420;50.246;14.320;2022-12-29T14:48:00;0.45;;;0.20;;
77350;SDS011;66420;50.246;14.320;2022-12-29T14:50:45;0.38;;;0.20;;
77350;SDS011;66420;50.246;14.320;2022-12-29T14:53:47;0.32;;;0.20;;
77350;SDS011;66420;50.246;14.320;2022-12-29T14:56:34;0.32;;;0.10;;
77350;SDS011;66420;50.246;14.320;2022-12-29T14:59:23;0.30;;;0.20;;
77350;SDS011;66420;50.246;14.320;2022-12-29T15:02:19;0.20;;;0.15;;
77350;SDS011;66420;50.246;14.320;2022-12-29T15:05:10;0.30;;;0.10;;
77350;SDS011;66420;50.246;14.320;2022-12-29T15:08:08;0.20;;;0.10;;
77350;SDS011;66420;50.246;14.320;2022-12-29T15:11:00;0.20;;;0.10;;
77350;SDS011;66420;50.246;14.320;2022-12-29T15:13:57;0.25;;;0.10;;
77350;SDS011;66420;50.246;14.320;2022-12-29T15:16:42;0.10;;;0.10;;
77350;SDS011;66420;50.246;14.320;2022-12-29T15:19:27;0.60;;;0.50;;
77350;SDS011;66420;50.246;14.320;2022-12-29T15:22:12;0.98;;;0.20;;
77350;SDS011;66420;50.246;14.320;2022-12-29T15:24:59;0.80;;;0.65;;
77350;SDS011;66420;50.246;14.320;2022-12-29T15:27:48;1.02;;;0.20;;
77350;SDS011;66420;50.246;14.320;2022-12-29T15:30:35;0.20;;;0.13;;
77350;SDS011;66420;50.246;14.320;2022-12-29T15:33:21;0.20;;;0.10;;
77350;SDS011;66420;50.246;14.320;2022-12-29T15:36:11;0.55;;;0.38;;
77350;SDS011;66420;50.246;14.320;2022-12-29T15:38:57;0.35;;;0.22;;
77350;SDS011;66420;50.246;14.320;2022-12-29T15:44:54;0.45;;;0.13;;
77350;SDS011;66420;50.246;14.320;2022-12-29T15:47:41;0.52;;;0.20;;
77350;SDS011;66420;50.246;14.320;2022-12-29T15:50:33;0.45;;;0.20;;
77350;SDS011;66420;50.246;14.320;2022-12-29T15:53:22;0.50;;;0.20;;
77350;SDS011;66420;50.246;14.320;2022-12-29T15:56:12;0.43;;;0.20;;
77350;SDS011;66420;50.246;14.320;2022-12-29T15:58:57;0.68;;;0.35;;
77350;SDS011;66420;50.246;14.320;2022-12-29T16:01:42;0.77;;;0.30;;
77350;SDS011;66420;50.246;14.320;2022-12-29T16:04:29;0.30;;;0.22;;
77350;SDS011;66420;50.246;14.320;2022-12-29T16:07:27;0.57;;;0.28;;
77350;SDS011;66420;50.246;14.320;2022-12-29T16:13:26;0.60;;;0.30;;
77350;SDS011;66420;50.246;14.320;2022-12-29T16:16:18;0.70;;;0.30;;
77350;SDS011;66420;50.246;14.320;2022-12-29T16:21:59;0.90;;;0.40;;
77350;SDS011;66420;50.246;14.320;2022-12-29T16:24:46;0.28;;;0.20;;
77350;SDS011;66420;50.246;14.320;2022-12-29T16:27:37;0.68;;;0.30;;
77350;SDS011;66420;50.246;14.320;2022-12-29T16:36:33;0.50;;;0.25;;
77350;SDS011;66420;50.246;14.320;2022-12-29T16:39:31;0.57;;;0.40;;
77350;SDS011;66420;50.246;14.320;2022-12-29T16:48:32;1.15;;;0.47;;
77350;SDS011;66420;50.246;14.320;2022-12-29T16:51:30;0.68;;;0.30;;
77350;SDS011;66420;50.246;14.320;2022-12-29T16:54:24;0.90;;;0.32;;
77350;SDS011;66420;50.246;14.320;2022-12-29T16:57:14;0.50;;;0.25;;
77350;SDS011;66420;50.246;14.320;2022-12-29T17:00:20;0.65;;;0.30;;
77350;SDS011;66420;50.246;14.320;2022-12-29T17:03:08;0.65;;;0.32;;
77350;SDS011;66420;50.246;14.320;2022-12-29T17:05:54;0.30;;;0.20;;
77350;SDS011;66420;50.246;14.320;2022-12-29T17:08:39;0.80;;;0.30;;
77350;SDS011;66420;50.246;14.320;2022-12-29T17:17:31;0.60;;;0.30;;
77350;SDS011;66420;50.246;14.320;2022-12-29T17:20:19;0.60;;;0.30;;
77350;SDS011;66420;50.246;14.320;2022-12-29T17:23:12;1.40;;;0.40;;
77350;SDS011;66420;50.246;14.320;2022-12-29T17:25:59;0.70;;;0.35;;
77350;SDS011;66420;50.246;14.320;2022-12-29T17:28:44;0.70;;;0.40;;
77350;SDS011;66420;50.246;14.320;2022-12-29T17:31:30;0.63;;;0.43;;
77350;SDS011;66420;50.246;14.320;2022-12-29T17:34:15;1.17;;;0.80;;
77350;SDS011;66420;50.246;14.320;2022-12-29T17:37:00;0.90;;;0.43;;
77350;SDS011;66420;50.246;14.320;2022-12-29T17:39:44;0.82;;;0.40;;
77350;SDS011;66420;50.246;14.320;2022-12-29T17:42:29;1.60;;;0.70;;
77350;SDS011;66420;50.246;14.320;2022-12-29T17:45:17;0.80;;;0.32;;
77350;SDS011;66420;50.246;14.320;2022-12-29T17:48:11;2.10;;;0.50;;
77350;SDS011;66420;50.246;14.320;2022-12-29T17:50:58;1.10;;;0.40;;
77350;SDS011;66420;50.246;14.320;2022-12-29T17:53:43;0.95;;;0.55;;
77350;SDS011;66420;50.246;14.320;2022-12-29T17:56:27;1.60;;;0.57;;
77350;SDS011;66420;50.246;14.320;2022-12-29T17:59:14;1.20;;;0.52;;
77350;SDS011;66420;50.246;14.320;2022-12-29T18:01:59;1.23;;;0.93;;
77350;SDS011;66420;50.246;14.320;2022-12-29T18:04:44;1.17;;;0.43;;
77350;SDS011;66420;50.246;14.320;2022-12-29T18:07:29;1.05;;;0.50;;
77350;SDS011;66420;50.246;14.320;2022-12-29T18:10:14;2.10;;;1.27;;
77350;SDS011;66420;50.246;14.320;2022-12-29T18:13:02;1.38;;;0.70;;
77350;SDS011;66420;50.246;14.320;2022-12-29T18:15:47;1.30;;;0.68;;
77350;SDS011;66420;50.246;14.320;2022-12-29T18:18:32;1.40;;;0.82;;
77350;SDS011;66420;50.246;14.320;2022-12-29T18:21:20;1.45;;;0.73;;
77350;SDS011;66420;50.246;14.320;2022-12-29T18:24:08;1.52;;;0.60;;
77350;SDS011;66420;50.246;14.320;2022-12-29T18:26:57;1.65;;;0.63;;
77350;SDS011;66420;50.246;14.320;2022-12-29T18:29:41;1.35;;;1.00;;
77350;SDS011;66420;50.246;14.320;2022-12-29T18:32:26;1.83;;;0.70;;
77350;SDS011;66420;50.246;14.320;2022-12-29T18:41:19;1.13;;;0.60;;
77350;SDS011;66420;50.246;14.320;2022-12-29T18:44:10;1.70;;;0.80;;
77350;SDS011;66420;50.246;14.320;2022-12-29T18:46:56;1.40;;;0.73;;
77350;SDS011;66420;50.246;14.320;2022-12-29T18:49:41;1.00;;;0.50;;
77350;SDS011;66420;50.246;14.320;2022-12-29T18:52:25;1.25;;;0.63;;
77350;SDS011;66420;50.246;14.320;2022-12-29T18:55:13;1.35;;;0.70;;
77350;SDS011;66420;50.246;14.320;2022-12-29T18:58:02;1.75;;;0.98;;
77350;SDS011;66420;50.246;14.320;2022-12-29T19:00:47;1.33;;;0.73;;
77350;SDS011;66420;50.246;14.320;2022-12-29T19:03:32;1.17;;;0.63;;
77350;SDS011;66420;50.246;14.320;2022-12-29T19:06:17;1.40;;;0.52;;
77350;SDS011;66420;50.246;14.320;2022-12-29T19:09:03;1.52;;;0.60;;
77350;SDS011;66420;50.246;14.320;2022-12-29T19:11:47;1.40;;;0.63;;
77350;SDS011;66420;50.246;14.320;2022-12-29T19:14:32;2.35;;;0.70;;
77350;SDS011;66420;50.246;14.320;2022-12-29T19:17:16;2.08;;;0.60;;
77350;SDS011;66420;50.246;14.320;2022-12-29T19:20:01;1.33;;;0.70;;
77350;SDS011;66420;50.246;14.320;2022-12-29T19:22:47;1.48;;;0.80;;
77350;SDS011;66420;50.246;14.320;2022-12-29T19:25:32;1.27;;;0.55;;
77350;SDS011;66420;50.246;14.320;2022-12-29T19:28:19;1.48;;;0.80;;